Waimea, HI

12:40 PM HST am 28. November 2014 (GMT -1000)
Barking Sands PMRF | Change Station
CLOSE
Current Station
Flughafen
Location: Barking Sands,
Höhe: 13 ft
Wetterstationen in der Umgebung

Höhe 13 ft 22.02 °N, 159.79 °W | Updated 44 minutes ago

Mostly Cloudy
Wolkig
79 °F
gefühlte 79 °F
N
0
Wind Wechselnd Wind aus Nord

Heute
Max. -- | schwach -- °F
--% Regenrisiko
Gestern
Max. -- | schwach -- °F
Precip. -- inch
6:59 AM 5:54 PM
Erstes Viertel, 44% visible
Druck 30.04 inch
Sichtweite 10.0 Meilen
Wolken Wolkig 5500 ft
Taupunkt 60 °F
Feuchtigkeit 52%
Regen 0.00 inch
Schneehöhe Nicht verfügbar..
UV 3 von 12
Pollen Nicht verfügbar..
Luftqualität Nicht verfügbar..
Flu Activity Nicht verfügbar..
METAR PHBK 282156Z AUTO 00000KT 10SM BKN055 26/16 A3004 RMK AO2 SLP173 T02610156

More Conditions Fewer Conditions

Druck 30.04 inch
Sichtweite 10.0 Meilen
Wolken Wolkig 5500 ft
Taupunkt 60 °F
Feuchtigkeit 52%
Regen 0.00 inch
Schneehöhe Nicht verfügbar..
UV 3 von 12
Pollen Nicht verfügbar..
Luftqualität Nicht verfügbar..
Flu Activity Nicht verfügbar..
METAR PHBK 282156Z AUTO 00000KT 10SM BKN055 26/16 A3004 RMK AO2 SLP173 T02610156

More Conditions Fewer Conditions

10-Day Weather Forecast

Almanac

Astronomie

Nov. 28, 2014 Aufgang Untergang
Genaue Zeit
Bürgerliche Dämmerung
Nautische Dämmerung
Astronomische Dämmerung
Mond
Länge des sichtbaren Lichts
Tageslänge
Tomorrow will be .
, % of the Moon is Illuminated

Heutige Rekorde

State Highs State Lows

Community

WunderPhotos

Upload Photos

1,774,323 Fotos hochgeladen!

WunderBlogs® & News

Nearby

Luftqualität

  Luftqualität LQ Index Schadstoff
Not available.

Schneehöhe

Station Depth Höhe

Erdbebenaktivität

Stadt Distance Mag. Time & Date
Minimum magnitude displayed is 2.5.

küstennahe Wassertemperaturen

Ort Temperatur

Wetterstationen in der Umgebung